sensor_id;sensor_type;location;lat;lon;timestamp;pressure;altitude;pressure_sealevel;temperature;humidity
61109;BME280;46995;55.740;37.402;2023-03-07T00:01:36;98143.97;;;-2.61;69.62
61109;BME280;46995;55.740;37.402;2023-03-07T00:04:02;98166.88;;;-2.55;69.59
61109;BME280;46995;55.740;37.402;2023-03-07T00:06:28;98163.78;;;-2.62;69.48
61109;BME280;46995;55.740;37.402;2023-03-07T00:08:57;98168.38;;;-2.67;69.75
61109;BME280;46995;55.740;37.402;2023-03-07T00:11:23;98139.06;;;-2.81;70.23
61109;BME280;46995;55.740;37.402;2023-03-07T00:13:49;98146.41;;;-2.74;69.45
61109;BME280;46995;55.740;37.402;2023-03-07T00:16:17;98168.31;;;-2.65;69.96
61109;BME280;46995;55.740;37.402;2023-03-07T00:18:43;98165.91;;;-2.68;69.61
61109;BME280;46995;55.740;37.402;2023-03-07T00:21:12;98148.72;;;-2.85;69.73
61109;BME280;46995;55.740;37.402;2023-03-07T00:23:42;98157.25;;;-2.83;70.26
61109;BME280;46995;55.740;37.402;2023-03-07T00:26:18;98158.63;;;-2.93;70.17
61109;BME280;46995;55.740;37.402;2023-03-07T00:28:46;98155.56;;;-2.84;70.21
61109;BME280;46995;55.740;37.402;2023-03-07T00:31:13;98156.72;;;-2.74;70.72
61109;BME280;46995;55.740;37.402;2023-03-07T00:33:39;98139.81;;;-2.79;71.04
61109;BME280;46995;55.740;37.402;2023-03-07T00:38:40;98145.88;;;-2.65;72.15
61109;BME280;46995;55.740;37.402;2023-03-07T00:41:13;98152.22;;;-2.54;72.57
61109;BME280;46995;55.740;37.402;2023-03-07T00:43:39;98158.47;;;-2.59;72.78
61109;BME280;46995;55.740;37.402;2023-03-07T00:46:06;98143.47;;;-2.68;72.73
61109;BME280;46995;55.740;37.402;2023-03-07T00:48:34;98154.56;;;-2.66;73.22
61109;BME280;46995;55.740;37.402;2023-03-07T00:51:01;98149.81;;;-2.73;73.41
61109;BME280;46995;55.740;37.402;2023-03-07T00:53:27;98140.72;;;-2.80;72.94
61109;BME280;46995;55.740;37.402;2023-03-07T00:58:20;98145.22;;;-2.68;72.63
61109;BME280;46995;55.740;37.402;2023-03-07T01:00:48;98142.91;;;-2.73;72.88
61109;BME280;46995;55.740;37.402;2023-03-07T01:03:14;98155.81;;;-2.73;72.76
61109;BME280;46995;55.740;37.402;2023-03-07T01:05:40;98134.72;;;-2.81;72.46
61109;BME280;46995;55.740;37.402;2023-03-07T01:08:06;98141.88;;;-2.86;72.54
61109;BME280;46995;55.740;37.402;2023-03-07T01:10:32;98110.06;;;-3.18;72.89
61109;BME280;46995;55.740;37.402;2023-03-07T01:12:59;98151.56;;;-3.05;73.18
61109;BME280;46995;55.740;37.402;2023-03-07T01:15:26;98160.53;;;-3.12;73.37
61109;BME280;46995;55.740;37.402;2023-03-07T01:17:53;98121.25;;;-3.50;73.57
61109;BME280;46995;55.740;37.402;2023-03-07T01:20:19;98153.41;;;-3.40;73.73
61109;BME280;46995;55.740;37.402;2023-03-07T01:22:45;98155.47;;;-3.47;74.21
61109;BME280;46995;55.740;37.402;2023-03-07T01:25:11;98134.03;;;-3.64;74.42
61109;BME280;46995;55.740;37.402;2023-03-07T01:27:38;98151.53;;;-3.54;74.32
61109;BME280;46995;55.740;37.402;2023-03-07T01:30:05;98114.56;;;-3.87;74.00
61109;BME280;46995;55.740;37.402;2023-03-07T01:32:33;98143.41;;;-3.79;74.37
61109;BME280;46995;55.740;37.402;2023-03-07T01:35:00;98154.13;;;-3.71;74.99
61109;BME280;46995;55.740;37.402;2023-03-07T01:37:26;98157.09;;;-3.61;74.88
61109;BME280;46995;55.740;37.402;2023-03-07T01:39:54;98152.63;;;-3.58;74.65
61109;BME280;46995;55.740;37.402;2023-03-07T01:42:21;98142.28;;;-3.58;74.50
61109;BME280;46995;55.740;37.402;2023-03-07T01:47:34;98150.66;;;-3.37;73.82
61109;BME280;46995;55.740;37.402;2023-03-07T01:50:03;98121.16;;;-3.49;73.70
61109;BME280;46995;55.740;37.402;2023-03-07T01:52:37;98146.03;;;-3.30;73.68
61109;BME280;46995;55.740;37.402;2023-03-07T01:55:18;98144.88;;;-3.25;73.58
61109;BME280;46995;55.740;37.402;2023-03-07T01:57:49;98164.38;;;-3.19;73.63
61109;BME280;46995;55.740;37.402;2023-03-07T02:00:17;98154.38;;;-3.25;73.69
61109;BME280;46995;55.740;37.402;2023-03-07T02:05:39;98132.69;;;-3.38;73.47
61109;BME280;46995;55.740;37.402;2023-03-07T02:08:06;98164.19;;;-3.16;73.63
61109;BME280;46995;55.740;37.402;2023-03-07T02:10:34;98165.94;;;-3.17;73.58
61109;BME280;46995;55.740;37.402;2023-03-07T02:13:01;98147.66;;;-3.29;73.91
61109;BME280;46995;55.740;37.402;2023-03-07T02:15:27;98131.00;;;-3.39;73.57
61109;BME280;46995;55.740;37.402;2023-03-07T02:17:53;98127.53;;;-3.38;73.43
61109;BME280;46995;55.740;37.402;2023-03-07T02:20:26;98160.84;;;-3.18;73.86
61109;BME280;46995;55.740;37.402;2023-03-07T02:22:58;98165.94;;;-3.17;73.39
61109;BME280;46995;55.740;37.402;2023-03-07T02:25:31;98176.19;;;-3.15;73.79
61109;BME280;46995;55.740;37.402;2023-03-07T02:28:02;98144.88;;;-3.25;73.62
61109;BME280;46995;55.740;37.402;2023-03-07T02:30:30;98120.38;;;-3.33;73.09
61109;BME280;46995;55.740;37.402;2023-03-07T02:32:56;98098.53;;;-3.44;72.90
61109;BME280;46995;55.740;37.402;2023-03-07T02:35:24;98103.56;;;-3.40;73.60
61109;BME280;46995;55.740;37.402;2023-03-07T02:37:56;98134.13;;;-3.17;73.35
61109;BME280;46995;55.740;37.402;2023-03-07T02:40:28;98130.06;;;-3.21;73.27
61109;BME280;46995;55.740;37.402;2023-03-07T02:42:56;98133.97;;;-3.14;73.06
61109;BME280;46995;55.740;37.402;2023-03-07T02:45:24;98131.88;;;-3.23;73.05
61109;BME280;46995;55.740;37.402;2023-03-07T02:47:50;98156.44;;;-3.16;73.07
61109;BME280;46995;55.740;37.402;2023-03-07T02:50:17;98124.78;;;-3.35;73.55
61109;BME280;46995;55.740;37.402;2023-03-07T02:52:46;98140.69;;;-3.27;73.58
61109;BME280;46995;55.740;37.402;2023-03-07T02:55:14;98107.38;;;-3.48;73.21
61109;BME280;46995;55.740;37.402;2023-03-07T02:57:47;98137.53;;;-3.32;73.38
61109;BME280;46995;55.740;37.402;2023-03-07T03:00:13;98136.09;;;-3.38;73.72
61109;BME280;46995;55.740;37.402;2023-03-07T03:02:39;98152.34;;;-3.36;73.87
61109;BME280;46995;55.740;37.402;2023-03-07T03:05:06;98135.25;;;-3.38;73.77
61109;BME280;46995;55.740;37.402;2023-03-07T03:07:32;98155.03;;;-3.22;73.67
61109;BME280;46995;55.740;37.402;2023-03-07T03:10:01;98158.53;;;-3.23;73.05
61109;BME280;46995;55.740;37.402;2023-03-07T03:12:29;98166.00;;;-3.18;73.31
61109;BME280;46995;55.740;37.402;2023-03-07T03:14:56;98125.25;;;-3.45;73.28
61109;BME280;46995;55.740;37.402;2023-03-07T03:17:22;98163.44;;;-3.18;73.36
61109;BME280;46995;55.740;37.402;2023-03-07T03:19:48;98141.91;;;-3.34;73.52
61109;BME280;46995;55.740;37.402;2023-03-07T03:22:15;98137.84;;;-3.38;73.38
61109;BME280;46995;55.740;37.402;2023-03-07T03:24:45;98148.44;;;-3.27;72.96
61109;BME280;46995;55.740;37.402;2023-03-07T03:27:15;98152.69;;;-3.26;73.07
61109;BME280;46995;55.740;37.402;2023-03-07T03:29:43;98158.59;;;-3.24;73.25
61109;BME280;46995;55.740;37.402;2023-03-07T03:32:10;98143.69;;;-3.35;73.25
61109;BME280;46995;55.740;37.402;2023-03-07T03:34:36;98159.19;;;-3.35;73.14
61109;BME280;46995;55.740;37.402;2023-03-07T03:37:03;98140.38;;;-3.54;73.36
61109;BME280;46995;55.740;37.402;2023-03-07T03:39:30;98153.28;;;-3.54;73.45
61109;BME280;46995;55.740;37.402;2023-03-07T03:41:59;98128.53;;;-3.74;73.35
61109;BME280;46995;55.740;37.402;2023-03-07T03:44:25;98147.16;;;-3.69;73.84
61109;BME280;46995;55.740;37.402;2023-03-07T03:46:54;98166.78;;;-3.66;74.33
61109;BME280;46995;55.740;37.402;2023-03-07T03:49:22;98143.53;;;-3.82;74.10
61109;BME280;46995;55.740;37.402;2023-03-07T03:51:50;98124.63;;;-3.98;74.05
61109;BME280;46995;55.740;37.402;2023-03-07T03:54:17;98139.44;;;-3.86;74.06
61109;BME280;46995;55.740;37.402;2023-03-07T03:56:42;98151.25;;;-3.82;73.59
61109;BME280;46995;55.740;37.402;2023-03-07T03:59:08;98167.66;;;-3.83;73.94
61109;BME280;46995;55.740;37.402;2023-03-07T04:01:34;98153.09;;;-4.01;74.10
61109;BME280;46995;55.740;37.402;2023-03-07T04:04:00;98169.78;;;-3.91;73.55
61109;BME280;46995;55.740;37.402;2023-03-07T04:06:30;98159.56;;;-3.93;74.06
61109;BME280;46995;55.740;37.402;2023-03-07T04:08:58;98171.28;;;-3.87;74.29
61109;BME280;46995;55.740;37.402;2023-03-07T04:11:24;98186.16;;;-3.75;74.08
61109;BME280;46995;55.740;37.402;2023-03-07T04:13:51;98176.00;;;-3.78;74.04
61109;BME280;46995;55.740;37.402;2023-03-07T04:16:18;98170.50;;;-3.88;73.94
61109;BME280;46995;55.740;37.402;2023-03-07T04:18:47;98166.13;;;-3.87;74.02
61109;BME280;46995;55.740;37.402;2023-03-07T04:21:15;98181.25;;;-3.79;74.20
61109;BME280;46995;55.740;37.402;2023-03-07T04:23:41;98158.25;;;-4.01;74.18
61109;BME280;46995;55.740;37.402;2023-03-07T04:26:08;98132.94;;;-4.10;73.87
61109;BME280;46995;55.740;37.402;2023-03-07T04:28:41;98130.38;;;-4.10;74.16
61109;BME280;46995;55.740;37.402;2023-03-07T04:31:49;98168.28;;;-3.95;73.92
61109;BME280;46995;55.740;37.402;2023-03-07T04:34:15;98123.59;;;-4.13;73.69
61109;BME280;46995;55.740;37.402;2023-03-07T04:36:41;98139.78;;;-4.09;73.60
61109;BME280;46995;55.740;37.402;2023-03-07T04:39:07;98168.09;;;-3.92;73.91
61109;BME280;46995;55.740;37.402;2023-03-07T04:41:34;98158.63;;;-3.92;73.70
61109;BME280;46995;55.740;37.402;2023-03-07T04:44:07;98150.91;;;-3.92;73.53
61109;BME280;46995;55.740;37.402;2023-03-07T04:46:39;98196.53;;;-3.59;73.05
61109;BME280;46995;55.740;37.402;2023-03-07T04:49:05;98127.88;;;-3.95;73.14
61109;BME280;46995;55.740;37.402;2023-03-07T04:51:31;98185.56;;;-3.63;73.76
61109;BME280;46995;55.740;37.402;2023-03-07T04:54:06;98186.28;;;-3.61;73.05
61109;BME280;46995;55.740;37.402;2023-03-07T04:56:33;98178.13;;;-3.69;72.91
61109;BME280;46995;55.740;37.402;2023-03-07T04:59:02;98154.47;;;-3.77;72.71
61109;BME280;46995;55.740;37.402;2023-03-07T05:01:31;98137.94;;;-3.90;72.49
61109;BME280;46995;55.740;37.402;2023-03-07T05:03:58;98176.38;;;-3.68;72.76
61109;BME280;46995;55.740;37.402;2023-03-07T05:06:24;98132.00;;;-3.92;72.90
61109;BME280;46995;55.740;37.402;2023-03-07T05:08:51;98139.00;;;-3.94;72.91
61109;BME280;46995;55.740;37.402;2023-03-07T05:11:17;98156.16;;;-3.93;73.04
61109;BME280;46995;55.740;37.402;2023-03-07T05:13:47;98175.78;;;-3.73;72.64
61109;BME280;46995;55.740;37.402;2023-03-07T05:16:16;98204.88;;;-3.54;72.75
61109;BME280;46995;55.740;37.402;2023-03-07T05:18:43;98192.69;;;-3.68;72.65
61109;BME280;46995;55.740;37.402;2023-03-07T05:21:08;98161.50;;;-3.80;73.00
61109;BME280;46995;55.740;37.402;2023-03-07T05:23:35;98216.94;;;-3.37;72.72
61109;BME280;46995;55.740;37.402;2023-03-07T05:26:01;98209.56;;;-3.45;72.21
61109;BME280;46995;55.740;37.402;2023-03-07T05:28:27;98197.78;;;-3.33;71.78
61109;BME280;46995;55.740;37.402;2023-03-07T05:30:53;98156.63;;;-3.52;72.15
61109;BME280;46995;55.740;37.402;2023-03-07T05:33:20;98199.81;;;-3.23;71.30
61109;BME280;46995;55.740;37.402;2023-03-07T05:35:48;98226.25;;;-3.02;71.72
61109;BME280;46995;55.740;37.402;2023-03-07T05:38:15;98228.59;;;-2.97;71.38
61109;BME280;46995;55.740;37.402;2023-03-07T05:40:41;98227.19;;;-2.87;71.54
61109;BME280;46995;55.740;37.402;2023-03-07T05:43:09;98205.53;;;-3.01;70.91
61109;BME280;46995;55.740;37.402;2023-03-07T05:45:35;98194.69;;;-3.07;71.30
61109;BME280;46995;55.740;37.402;2023-03-07T05:48:02;98227.13;;;-2.86;71.17
61109;BME280;46995;55.740;37.402;2023-03-07T05:50:29;98214.22;;;-2.86;71.18
61109;BME280;46995;55.740;37.402;2023-03-07T05:52:55;98210.91;;;-2.88;70.75
61109;BME280;46995;55.740;37.402;2023-03-07T05:55:24;98221.25;;;-2.72;70.52
61109;BME280;46995;55.740;37.402;2023-03-07T05:57:50;98208.41;;;-2.74;70.44
61109;BME280;46995;55.740;37.402;2023-03-07T06:00:17;98228.38;;;-2.62;70.46
61109;BME280;46995;55.740;37.402;2023-03-07T06:02:50;98211.22;;;-2.78;70.31
61109;BME280;46995;55.740;37.402;2023-03-07T06:05:17;98189.38;;;-3.04;70.34
61109;BME280;46995;55.740;37.402;2023-03-07T06:07:45;98242.13;;;-2.77;70.64
61109;BME280;46995;55.740;37.402;2023-03-07T06:10:14;98215.72;;;-2.82;71.24
61109;BME280;46995;55.740;37.402;2023-03-07T06:12:51;98235.56;;;-2.67;70.78
61109;BME280;46995;55.740;37.402;2023-03-07T06:15:19;98242.91;;;-2.43;70.66
61109;BME280;46995;55.740;37.402;2023-03-07T06:17:47;98206.72;;;-2.43;69.96
61109;BME280;46995;55.740;37.402;2023-03-07T06:20:14;98224.22;;;-2.17;68.70
61109;BME280;46995;55.740;37.402;2023-03-07T06:22:40;98249.78;;;-1.97;69.76
61109;BME280;46995;55.740;37.402;2023-03-07T06:25:07;98199.63;;;-2.24;70.50
61109;BME280;46995;55.740;37.402;2023-03-07T06:27:35;98255.19;;;-1.86;69.05
61109;BME280;46995;55.740;37.402;2023-03-07T06:30:04;98233.50;;;-1.99;68.00
61109;BME280;46995;55.740;37.402;2023-03-07T06:32:31;98242.53;;;-1.90;68.58
61109;BME280;46995;55.740;37.402;2023-03-07T06:34:58;98227.44;;;-1.98;68.86
61109;BME280;46995;55.740;37.402;2023-03-07T06:37:26;98213.69;;;-2.14;68.66
61109;BME280;46995;55.740;37.402;2023-03-07T06:39:53;98216.84;;;-2.09;69.25
61109;BME280;46995;55.740;37.402;2023-03-07T06:42:19;98234.28;;;-1.97;68.15
61109;BME280;46995;55.740;37.402;2023-03-07T06:44:45;98241.63;;;-1.89;68.07
61109;BME280;46995;55.740;37.402;2023-03-07T06:47:11;98248.88;;;-1.96;67.97
61109;BME280;46995;55.740;37.402;2023-03-07T06:49:37;98257.56;;;-1.97;68.13
61109;BME280;46995;55.740;37.402;2023-03-07T06:52:03;98181.88;;;-2.62;68.36
61109;BME280;46995;55.740;37.402;2023-03-07T06:54:31;98194.72;;;-2.60;68.48
61109;BME280;46995;55.740;37.402;2023-03-07T06:56:57;98240.72;;;-2.35;69.00
61109;BME280;46995;55.740;37.402;2023-03-07T06:59:23;98247.50;;;-2.17;68.65
61109;BME280;46995;55.740;37.402;2023-03-07T07:01:49;98272.47;;;-1.86;68.17
61109;BME280;46995;55.740;37.402;2023-03-07T07:04:17;98221.19;;;-1.94;68.18
61109;BME280;46995;55.740;37.402;2023-03-07T07:06:44;98240.63;;;-1.73;67.27
61109;BME280;46995;55.740;37.402;2023-03-07T07:09:12;98255.13;;;-1.54;66.97
61109;BME280;46995;55.740;37.402;2023-03-07T07:11:38;98255.16;;;-1.40;66.76
61109;BME280;46995;55.740;37.402;2023-03-07T07:14:08;98249.06;;;-1.39;67.29
61109;BME280;46995;55.740;37.402;2023-03-07T07:16:35;98249.63;;;-1.20;66.51
61109;BME280;46995;55.740;37.402;2023-03-07T07:19:03;98263.63;;;-1.08;65.92
61109;BME280;46995;55.740;37.402;2023-03-07T07:21:30;98261.59;;;-1.03;67.13
61109;BME280;46995;55.740;37.402;2023-03-07T07:23:56;98231.59;;;-1.21;66.11
61109;BME280;46995;55.740;37.402;2023-03-07T07:26:24;98273.72;;;-0.90;65.72
61109;BME280;46995;55.740;37.402;2023-03-07T07:28:51;98257.44;;;-0.92;65.37
61109;BME280;46995;55.740;37.402;2023-03-07T07:31:17;98264.63;;;-0.82;65.25
61109;BME280;46995;55.740;37.402;2023-03-07T07:33:42;98272.97;;;-0.77;65.88
61109;BME280;46995;55.740;37.402;2023-03-07T07:36:09;98251.13;;;-0.88;65.32
61109;BME280;46995;55.740;37.402;2023-03-07T07:38:35;98261.69;;;-0.91;65.61
61109;BME280;46995;55.740;37.402;2023-03-07T07:41:01;98268.81;;;-0.80;65.20
61109;BME280;46995;55.740;37.402;2023-03-07T07:43:27;98279.47;;;-0.70;65.37
61109;BME280;46995;55.740;37.402;2023-03-07T07:46:06;98244.84;;;-0.98;65.14
61109;BME280;46995;55.740;37.402;2023-03-07T07:48:32;98272.41;;;-0.97;65.84
61109;BME280;46995;55.740;37.402;2023-03-07T07:51:00;98252.63;;;-1.12;65.77
61109;BME280;46995;55.740;37.402;2023-03-07T07:53:27;98273.34;;;-1.12;66.08
61109;BME280;46995;55.740;37.402;2023-03-07T07:55:53;98273.56;;;-1.31;66.61
61109;BME280;46995;55.740;37.402;2023-03-07T07:58:19;98247.44;;;-1.56;66.59
61109;BME280;46995;55.740;37.402;2023-03-07T08:00:45;98258.84;;;-1.74;67.69
61109;BME280;46995;55.740;37.402;2023-03-07T08:03:11;98256.69;;;-1.82;68.40
61109;BME280;46995;55.740;37.402;2023-03-07T08:05:37;98264.19;;;-1.77;67.66
61109;BME280;46995;55.740;37.402;2023-03-07T08:08:08;98265.75;;;-1.89;68.00
61109;BME280;46995;55.740;37.402;2023-03-07T08:10:34;98265.75;;;-1.89;67.92
61109;BME280;46995;55.740;37.402;2023-03-07T08:13:00;98245.88;;;-2.04;67.52
61109;BME280;46995;55.740;37.402;2023-03-07T08:15:27;98270.53;;;-1.83;67.46
61109;BME280;46995;55.740;37.402;2023-03-07T08:17:52;98256.78;;;-1.83;67.30
61109;BME280;46995;55.740;37.402;2023-03-07T08:20:19;98281.88;;;-1.69;67.70
61109;BME280;46995;55.740;37.402;2023-03-07T08:22:47;98264.88;;;-1.74;67.73
61109;BME280;46995;55.740;37.402;2023-03-07T08:25:19;98246.84;;;-1.75;67.77
61109;BME280;46995;55.740;37.402;2023-03-07T08:27:47;98269.53;;;-1.50;67.50
61109;BME280;46995;55.740;37.402;2023-03-07T08:30:13;98243.44;;;-1.61;67.47
61109;BME280;46995;55.740;37.402;2023-03-07T08:32:39;98231.44;;;-1.62;67.43
61109;BME280;46995;55.740;37.402;2023-03-07T08:35:05;98257.00;;;-1.42;67.08
61109;BME280;46995;55.740;37.402;2023-03-07T08:37:31;98264.16;;;-1.32;67.14
61109;BME280;46995;55.740;37.402;2023-03-07T08:39:57;98244.06;;;-1.42;67.39
61109;BME280;46995;55.740;37.402;2023-03-07T08:42:23;98242.19;;;-1.40;67.25
61109;BME280;46995;55.740;37.402;2023-03-07T08:44:49;98238.53;;;-1.36;66.89
61109;BME280;46995;55.740;37.402;2023-03-07T08:47:14;98238.63;;;-1.23;67.25
61109;BME280;46995;55.740;37.402;2023-03-07T08:49:42;98234.28;;;-1.23;66.98
61109;BME280;46995;55.740;37.402;2023-03-07T08:52:07;98231.50;;;-1.34;66.88
61109;BME280;46995;55.740;37.402;2023-03-07T08:54:33;98258.84;;;-1.30;67.24
61109;BME280;46995;55.740;37.402;2023-03-07T08:56:59;98240.00;;;-1.32;67.11
61109;BME280;46995;55.740;37.402;2023-03-07T08:59:25;98242.97;;;-1.24;67.61
61109;BME280;46995;55.740;37.402;2023-03-07T09:01:51;98226.31;;;-1.34;67.08
61109;BME280;46995;55.740;37.402;2023-03-07T09:04:17;98220.69;;;-1.26;66.79
61109;BME280;46995;55.740;37.402;2023-03-07T09:06:42;98255.84;;;-0.94;66.69
61109;BME280;46995;55.740;37.402;2023-03-07T09:09:08;98226.91;;;-1.01;66.70
61109;BME280;46995;55.740;37.402;2023-03-07T09:11:34;98236.25;;;-0.84;66.24
61109;BME280;46995;55.740;37.402;2023-03-07T09:14:00;98244.84;;;-0.69;66.20
61109;BME280;46995;55.740;37.402;2023-03-07T09:16:25;98225.69;;;-0.81;65.76
61109;BME280;46995;55.740;37.402;2023-03-07T09:18:51;98251.69;;;-0.68;65.94
61109;BME280;46995;55.740;37.402;2023-03-07T09:21:20;98227.81;;;-0.73;65.37
61109;BME280;46995;55.740;37.402;2023-03-07T09:23:46;98232.81;;;-0.70;65.62
61109;BME280;46995;55.740;37.402;2023-03-07T09:26:12;98221.81;;;-0.74;65.42
61109;BME280;46995;55.740;37.402;2023-03-07T09:28:38;98243.44;;;-0.61;65.26
61109;BME280;46995;55.740;37.402;2023-03-07T09:31:09;98240.25;;;-0.52;65.19
61109;BME280;46995;55.740;37.402;2023-03-07T09:33:35;98229.59;;;-0.47;64.69
61109;BME280;46995;55.740;37.402;2023-03-07T09:36:06;98239.44;;;-0.38;65.01
61109;BME280;46995;55.740;37.402;2023-03-07T09:38:32;98246.09;;;-0.34;64.76
61109;BME280;46995;55.740;37.402;2023-03-07T09:44:31;98208.31;;;-0.38;63.92
61109;BME280;46995;55.740;37.402;2023-03-07T09:49:59;98237.78;;;-0.12;64.26
61109;BME280;46995;55.740;37.402;2023-03-07T09:52:30;98224.16;;;-0.16;64.30
61109;BME280;46995;55.740;37.402;2023-03-07T09:55:10;98234.28;;;0.02;63.72
61109;BME280;46995;55.740;37.402;2023-03-07T10:00:24;98234.59;;;0.24;62.58
61109;BME280;46995;55.740;37.402;2023-03-07T10:05:49;98214.34;;;0.29;62.51
61109;BME280;46995;55.740;37.402;2023-03-07T10:08:17;98232.44;;;0.43;61.98
61109;BME280;46995;55.740;37.402;2023-03-07T10:10:59;98204.19;;;0.38;61.90
61109;BME280;46995;55.740;37.402;2023-03-07T10:27:12;98192.97;;;1.14;59.42
61109;BME280;46995;55.740;37.402;2023-03-07T10:29:45;98212.06;;;1.38;58.53
61109;BME280;46995;55.740;37.402;2023-03-07T10:34:56;98194.34;;;1.43;57.86
61109;BME280;46995;55.740;37.402;2023-03-07T10:37:44;98206.25;;;1.71;58.17
61109;BME280;46995;55.740;37.402;2023-03-07T10:40:25;98209.63;;;1.84;56.41
61109;BME280;46995;55.740;37.402;2023-03-07T10:42:52;98183.81;;;1.81;57.03
61109;BME280;46995;55.740;37.402;2023-03-07T10:45:19;98195.56;;;1.87;56.71
61109;BME280;46995;55.740;37.402;2023-03-07T10:47:45;98191.06;;;1.89;56.75
61109;BME280;46995;55.740;37.402;2023-03-07T10:50:28;98199.34;;;1.83;56.61
61109;BME280;46995;55.740;37.402;2023-03-07T10:52:57;98180.75;;;1.63;56.67
61109;BME280;46995;55.740;37.402;2023-03-07T10:55:43;98191.66;;;1.68;56.22
61109;BME280;46995;55.740;37.402;2023-03-07T10:58:22;98186.03;;;1.75;56.95
61109;BME280;46995;55.740;37.402;2023-03-07T11:03:35;98186.59;;;1.67;55.27
61109;BME280;46995;55.740;37.402;2023-03-07T11:06:24;98173.56;;;1.43;56.50
61109;BME280;46995;55.740;37.402;2023-03-07T11:08:50;98181.34;;;1.43;56.38
61109;BME280;46995;55.740;37.402;2023-03-07T11:11:25;98182.00;;;1.34;55.78
61109;BME280;46995;55.740;37.402;2023-03-07T11:14:10;98168.66;;;1.15;56.26
61109;BME280;46995;55.740;37.402;2023-03-07T11:22:26;98184.19;;;1.40;55.57
61109;BME280;46995;55.740;37.402;2023-03-07T11:24:56;98161.72;;;1.39;54.98
61109;BME280;46995;55.740;37.402;2023-03-07T11:32:50;98171.91;;;1.66;54.02
61109;BME280;46995;55.740;37.402;2023-03-07T11:46:40;98186.97;;;1.97;54.09
61109;BME280;46995;55.740;37.402;2023-03-07T12:03:34;98161.28;;;1.93;52.53
61109;BME280;46995;55.740;37.402;2023-03-07T12:14:30;98156.84;;;2.06;52.39
61109;BME280;46995;55.740;37.402;2023-03-07T12:23:10;98159.34;;;2.07;52.52
61109;BME280;46995;55.740;37.402;2023-03-07T12:25:49;98158.75;;;2.04;52.65
61109;BME280;46995;55.740;37.402;2023-03-07T12:28:33;98162.47;;;2.00;51.68
61109;BME280;46995;55.740;37.402;2023-03-07T12:34:02;98138.03;;;1.79;52.12
61109;BME280;46995;55.740;37.402;2023-03-07T12:39:30;98153.94;;;1.87;52.24
61109;BME280;46995;55.740;37.402;2023-03-07T12:42:41;98149.81;;;1.95;53.15
61109;BME280;46995;55.740;37.402;2023-03-07T12:45:19;98135.56;;;1.77;51.37
61109;BME280;46995;55.740;37.402;2023-03-07T12:48:37;98139.47;;;1.83;51.77
61109;BME280;46995;55.740;37.402;2023-03-07T12:51:10;98147.94;;;1.74;51.87
61109;BME280;46995;55.740;37.402;2023-03-07T12:56:24;98151.44;;;1.61;51.61
61109;BME280;46995;55.740;37.402;2023-03-07T12:59:11;98133.56;;;1.57;52.44
61109;BME280;46995;55.740;37.402;2023-03-07T13:02:05;98142.66;;;1.62;52.72
61109;BME280;46995;55.740;37.402;2023-03-07T13:04:37;98138.78;;;1.57;52.07
61109;BME280;46995;55.740;37.402;2023-03-07T13:07:25;98140.19;;;1.61;52.36
61109;BME280;46995;55.740;37.402;2023-03-07T13:09:54;98121.53;;;1.43;52.64
61109;BME280;46995;55.740;37.402;2023-03-07T13:12:31;98138.38;;;1.50;52.54
61109;BME280;46995;55.740;37.402;2023-03-07T13:15:05;98133.84;;;1.41;52.88
61109;BME280;46995;55.740;37.402;2023-03-07T13:24:58;98139.91;;;1.16;54.78
61109;BME280;46995;55.740;37.402;2023-03-07T13:27:41;98141.22;;;0.98;55.38
61109;BME280;46995;55.740;37.402;2023-03-07T13:41:11;98119.75;;;0.46;56.82
61109;BME280;46995;55.740;37.402;2023-03-07T13:49:06;98149.56;;;0.40;58.33
61109;BME280;46995;55.740;37.402;2023-03-07T13:51:33;98137.59;;;0.25;58.47
61109;BME280;46995;55.740;37.402;2023-03-07T13:54:04;98168.56;;;0.40;59.05
61109;BME280;46995;55.740;37.402;2023-03-07T13:56:41;98155.16;;;0.34;59.42
61109;BME280;46995;55.740;37.402;2023-03-07T13:59:19;98165.50;;;0.21;60.26
61109;BME280;46995;55.740;37.402;2023-03-07T14:01:56;98148.47;;;0.05;61.19
61109;BME280;46995;55.740;37.402;2023-03-07T14:04:28;98161.03;;;0.11;61.30
61109;BME280;46995;55.740;37.402;2023-03-07T14:07:02;98148.66;;;0.02;61.86
61109;BME280;46995;55.740;37.402;2023-03-07T14:09:41;98146.06;;;0.02;62.21
61109;BME280;46995;55.740;37.402;2023-03-07T14:15:37;98150.72;;;-0.04;63.08
61109;BME280;46995;55.740;37.402;2023-03-07T14:26:18;98156.78;;;0.10;62.08
61109;BME280;46995;55.740;37.402;2023-03-07T14:29:01;98155.31;;;0.06;62.84
61109;BME280;46995;55.740;37.402;2023-03-07T14:31:30;98150.53;;;-0.01;62.78
61109;BME280;46995;55.740;37.402;2023-03-07T14:34:01;98134.31;;;-0.17;63.46
61109;BME280;46995;55.740;37.402;2023-03-07T14:36:39;98156.97;;;-0.06;63.74
61109;BME280;46995;55.740;37.402;2023-03-07T14:39:11;98144.47;;;-0.14;64.37
61109;BME280;46995;55.740;37.402;2023-03-07T14:41:50;98155.28;;;-0.07;64.27
61109;BME280;46995;55.740;37.402;2023-03-07T14:50:27;98168.75;;;-0.15;65.35
61109;BME280;46995;55.740;37.402;2023-03-07T14:53:33;98155.25;;;-0.20;65.20
61109;BME280;46995;55.740;37.402;2023-03-07T14:56:06;98126.63;;;-0.45;65.80
61109;BME280;46995;55.740;37.402;2023-03-07T14:58:45;98153.34;;;-0.30;66.06
61109;BME280;46995;55.740;37.402;2023-03-07T15:01:15;98148.16;;;-0.30;66.40
61109;BME280;46995;55.740;37.402;2023-03-07T15:03:50;98163.63;;;-0.29;65.99
61109;BME280;46995;55.740;37.402;2023-03-07T15:06:22;98153.94;;;-0.39;66.33
61109;BME280;46995;55.740;37.402;2023-03-07T15:08:48;98137.06;;;-0.59;66.38
61109;BME280;46995;55.740;37.402;2023-03-07T15:11:38;98152.03;;;-0.50;67.22
61109;BME280;46995;55.740;37.402;2023-03-07T15:14:19;98164.41;;;-0.41;67.37
61109;BME280;46995;55.740;37.402;2023-03-07T15:16:50;98165.88;;;-0.37;67.16
61109;BME280;46995;55.740;37.402;2023-03-07T15:21:58;98179.41;;;-0.32;68.26
61109;BME280;46995;55.740;37.402;2023-03-07T15:24:31;98166.06;;;-0.40;68.44
61109;BME280;46995;55.740;37.402;2023-03-07T15:26:58;98144.25;;;-0.50;69.21
61109;BME280;46995;55.740;37.402;2023-03-07T15:29:28;98160.16;;;-0.42;69.80
61109;BME280;46995;55.740;37.402;2023-03-07T15:34:33;98171.63;;;-0.32;70.48